Stations météo

Publicité
Wasserkuppe, Allemagne (10544): Température de l'air & dewpoint: 11.07.2018 06:00:00 - 17.07.2018 06:00:00 (CEST)Wasserkuppe, Allemagne (10544): Température de l'air 5cm & Température de l'air -5cm: 11.07.2018 06:00:00 - 17.07.2018 06:00:00 (CEST)Wasserkuppe, Allemagne (10544): Température de l'air -20cm & Température de l'air -100cm: 11.07.2018 06:00:00 - 17.07.2018 06:00:00 (CEST)Wasserkuppe, Allemagne (10544): Vitesse du vent & gusts: 11.07.2018 06:00:00 - 17.07.2018 06:00:00 (CEST)Wasserkuppe, Allemagne (10544): Direction du vent: 11.07.2018 06:00:00 - 17.07.2018 06:00:00 (CEST)Wasserkuppe, Allemagne (10544): visibility: 11.07.2018 06:00:00 - 17.07.2018 06:00:00 (CEST)Wasserkuppe, Allemagne (10544): Ensoleillement: 11.07.2018 06:00:00 - 17.07.2018 06:00:00 (CEST)Wasserkuppe, Allemagne (10544): Quantités de précipitations: 11.07.2018 06:00:00 - 17.07.2018 06:00:00 (CEST)
Date & Time tt [°C] td [°C] tt 5cm [°C] tt -5cm [°C] tt -20cm [°C] tt -100cm [°C] ff [km/h] ff [knt] fx [km/h] fx [knt] dd vv [km] sd [min] rr [mm]
17.07.2018 06:00:00 14,7 8,8 12,5 14,7 18,8 13,0 11 6 17 9 WSW 70 0 0,0
17.07.2018 05:00:00 14,8 8,7 12,2 15,1 19,0 13,0 10 6 12 7 WSW 70 0 0,0
17.07.2018 04:00:00 14,5 9,1 10,3 15,6 19,2 13,0 6 3 9 5 W 70 0 0,0
17.07.2018 03:00:00 15,0 9,2 10,9 16,2 19,3 13,0 8 5 10 5 WNW 70 0 0,0
17.07.2018 02:00:00 16,2 8,9 13,8 16,7 19,5 13,0 9 5 10 6 NNW 70 0 0,0
17.07.2018 01:00:00 16,4 8,8 13,2 17,4 19,6 13,0 10 5 11 6 N 70 0 0,0
17.07.2018 00:00:00 15,9 8,6 13,0 18,2 19,7 13,0 9 5 11 6 N 70 0 0,0
16.07.2018 23:00:00 15,3 8,8 12,0 19,2 19,7 12,9 8 5 10 6 WNW 70 0 0,0
16.07.2018 22:00:00 15,1 9,2 13,1 20,5 19,7 12,9 4 2 6 3 WSW 70 0 0,0
16.07.2018 21:00:00 15,7 10,0 14,3 21,7 19,6 12,9 5 3 10 6 S 70 23 0,0
16.07.2018 20:00:00 18,2 12,0 17,6 22,5 19,5 12,9 10 5 14 8 SE 70 49 0,0
16.07.2018 19:00:00 20,8 10,1 21,3 22,2 19,5 12,9 5 3 9 5 NNE 60 59 0,1
16.07.2018 18:00:00 16,0 12,6 14,8 21,7 19,5 12,9 6 4 37 20 SSE 28 2 2,5
16.07.2018 17:00:00 18,8 11,6 18,0 22,4 19,5 12,9 15 8 24 13 E 55 38 0,0
16.07.2018 16:00:00 20,2 14,3 22,0 19,9 19,6 12,9 5 3 13 7 S 55 39 0,0
16.07.2018 15:00:00 15,9 13,3 17,2 18,8 19,6 12,9 4 2 11 6 SSW 55 0 0,0
16.07.2018 14:00:00 12,9 11,0 12,6 20,3 19,5 12,9 6 4 32 17 S 40 0 21,9
16.07.2018 13:00:00 14,8 11,3 11,7 24,2 19,4 12,9 21 12 43 23 ESE 15 21 6,4
16.07.2018 12:00:00 19,9 12,0 23,3 23,5 19,4 12,9 7 4 15 8 WNW 45 10 0,0
16.07.2018 11:00:00 19,7 9,6 23,8 22,4 19,5 12,9 8 4 19 10 W 45 60 0,0
16.07.2018 10:00:00 19,3 11,3 21,7 20,1 19,6 12,9 14 8 29 16 SSW 45 60 0,0
16.07.2018 09:00:00 17,4 11,0 20,2 18,3 19,8 12,9 21 12 30 16 S 45 60 0,0
16.07.2018 08:00:00 15,2 11,0 16,1 17,6 20,0 12,9 18 10 24 13 S 45 16 0,0
16.07.2018 07:00:00 14,5 9,9 13,3 17,7 20,2 12,9 17 9 23 12 SSE 45 1 0,0
16.07.2018 06:00:00 14,6 9,8 13,1 18,1 20,5 12,9 16 8 22 12 SSE 40 1 0,0
16.07.2018 05:00:00 14,3 9,0 13,1 18,5 20,7 12,9 18 10 31 17 SE 40 0 0,0
16.07.2018 04:00:00 14,3 10,7 12,9 19,1 20,8 12,9 21 11 26 14 ESE 40 0 0,0
16.07.2018 03:00:00 15,1 10,7 13,2 19,7 21,0 12,9 19 10 23 13 ESE 45 0 0,0
16.07.2018 02:00:00 16,4 10,4 12,8 20,6 21,1 12,9 11 6 13 7 NE 50 0 0,0
16.07.2018 01:00:00 15,8 9,4 11,8 21,7 21,2 12,9 7 4 9 5 NE 50 0 0,0
16.07.2018 00:00:00 16,1 9,8 13,9 22,9 21,2 12,9 4 2 14 7 NW 50 0 0,0
15.07.2018 23:00:00 15,9 10,7 14,1 24,1 21,2 12,9 6 4 21 11 WSW 50 0 0,0
15.07.2018 22:00:00 16,1 11,1 15,2 25,5 21,1 12,9 16 8 25 14 SSE 50 0 0,0
15.07.2018 21:00:00 19,5 8,0 18,4 27,1 20,8 12,9 8 5 15 8 NNE 55 13 0,0
15.07.2018 20:00:00 20,9 8,5 22,2 28,6 20,6 12,9 9 5 16 9 NNE 50 57 0,0
15.07.2018 19:00:00 21,3 8,0 23,0 29,6 20,2 12,9 10 5 19 11 N 70 56 0,0
15.07.2018 18:00:00 21,1 7,8 22,8 30,4 19,8 12,9 11 6 25 13 NNE 80 44 0,0
15.07.2018 17:00:00 22,5 8,2 26,1 30,7 19,4 12,9 13 7 29 16 N 80 43 0,0
15.07.2018 16:00:00 22,2 8,4 28,2 30,8 19,0 12,9 19 10 30 16 N 80 55 0,0
15.07.2018 15:00:00 22,7 8,2 28,5 29,9 18,7 12,9 14 8 24 13 NNW 70 60 0,0
15.07.2018 14:00:00 21,5 9,0 27,3 28,3 18,5 12,9 16 8 23 12 NNW 70 60 0,0
15.07.2018 13:00:00 21,2 5,5 26,0 26,2 18,3 12,9 9 5 19 11 NNW 70 60 0,0
15.07.2018 12:00:00 20,3 10,5 25,4 23,8 18,3 12,9 10 5 23 12 NNW 70 60 0,0
15.07.2018 11:00:00 19,5 10,7 23,2 21,3 18,3 12,9 8 4 14 7 NW 70 60 0,0
15.07.2018 10:00:00 18,1 10,0 20,4 19,0 18,5 12,9 8 4 12 7 NNW 70 60 0,0
15.07.2018 09:00:00 18,6 10,0 20,5 17,1 18,7 12,9 6 3 12 7 WSW 70 60 0,0
15.07.2018 08:00:00 17,1 9,3 18,6 15,9 18,9 12,9 5 3 9 5 SSW 60 60 0,0
15.07.2018 07:00:00 15,1 8,6 14,5 15,6 19,1 12,9 6 3 9 5 SSE 40 52 0,0
15.07.2018 06:00:00 14,2 8,5 11,2 16,0 19,3 12,9 7 4 17 9 SE 40 0 0,0
15.07.2018 05:00:00 13,8 8,5 10,9 16,6 19,5 12,9 14 8 23 12 ESE 40 0 0,0
15.07.2018 04:00:00 14,1 9,1 11,2 17,3 19,7 12,9 16 8 19 11 E 40 0 0,0
15.07.2018 03:00:00 14,6 9,6 11,8 18,0 19,8 12,9 15 8 19 10 ENE 40 0 0,0
15.07.2018 02:00:00 15,0 10,2 12,5 18,8 20,0 12,9 13 7 19 10 NE 45 0 0,0
15.07.2018 01:00:00 15,5 10,5 13,6 19,7 20,1 12,9 13 7 22 12 NNE 45 0 0,0
15.07.2018 00:00:00 16,0 10,3 14,3 20,7 20,1 12,9 17 9 23 13 N 55 0 0,0
14.07.2018 23:00:00 16,9 9,6 14,7 21,9 20,1 12,9 14 8 19 10 N 55 0 0,0
14.07.2018 22:00:00 17,9 9,0 15,3 23,4 20,0 12,9 10 6 16 9 NNE 60 0 0,0
14.07.2018 21:00:00 18,8 8,9 16,7 25,0 19,8 12,9 11 6 16 8 N 65 31 0,0
14.07.2018 20:00:00 20,4 8,4 21,5 26,2 19,5 12,9 10 6 12 7 N 70 31 0,0
14.07.2018 19:00:00 20,5 8,2 20,8 27,5 19,2 12,9 7 4 14 8 NW 70 25 0,0
14.07.2018 18:00:00 22,1 8,3 24,6 28,0 18,9 12,9 7 4 18 10 NW 70 26 0,0
14.07.2018 17:00:00 20,7 7,8 22,1 29,2 18,5 12,9 9 5 22 12 N 70 22 0,0
14.07.2018 16:00:00 21,8 7,4 27,3 29,3 18,1 12,9 16 8 27 14 N 70 53 0,0
14.07.2018 15:00:00 22,4 8,2 29,0 27,9 17,8 12,9 11 6 21 12 NNW 70 58 0,0
14.07.2018 14:00:00 20,7 8,4 27,8 26,5 17,6 12,9 10 5 24 13 NNE 70 51 0,0
14.07.2018 13:00:00 19,7 7,9 24,8 24,9 17,5 12,9 7 4 23 12 NNW 70 59 0,0
14.07.2018 12:00:00 19,8 7,2 24,6 22,4 17,5 12,9 8 5 22 12 N 70 60 0,0
14.07.2018 11:00:00 18,6 6,6 22,4 19,9 17,5 12,9 11 6 18 10 N 60 60 0,0
14.07.2018 10:00:00 17,6 8,3 21,5 17,5 17,7 12,9 10 5 19 10 NE 50 60 0,0
14.07.2018 09:00:00 16,5 9,1 18,9 15,9 17,8 12,9 10 6 16 9 ENE 50 31 0,0
14.07.2018 08:00:00 15,9 7,9 17,3 15,0 18,0 12,9 10 5 16 9 NE 50 60 0,0
14.07.2018 07:00:00 14,2 8,3 13,4 14,9 18,2 12,9 13 7 18 10 NE 50 32 0,0
14.07.2018 06:00:00 14,0 8,1 12,2 15,4 18,4 12,9 14 8 16 9 NNE 50 19 0,0
14.07.2018 05:00:00 14,0 8,1 11,9 16,0 18,5 12,9 14 7 19 10 NNE 50 0 0,0
14.07.2018 04:00:00 14,0 9,2 12,3 16,6 18,7 12,9 15 8 20 11 NNE 50 0 0,0
14.07.2018 03:00:00 14,2 9,5 12,7 17,3 18,8 12,9 14 8 22 12 NNE 60 0 0,0
14.07.2018 02:00:00 14,7 9,3 13,7 17,9 18,9 12,9 16 9 21 12 NNE 60 0 0,0
14.07.2018 01:00:00 15,0 8,5 14,2 18,5 19,0 12,9 18 10 28 15 N 70 0 0,0
14.07.2018 00:00:00 15,3 9,0 14,3 19,4 19,0 12,9 20 11 26 14 N 70 0 0,0
13.07.2018 23:00:00 15,8 8,2 14,2 20,6 18,9 12,9 20 11 29 16 N 80 0 0,0
13.07.2018 22:00:00 16,4 8,1 14,5 22,1 18,8 12,9 18 10 29 15 N 80 0 0,0
13.07.2018 21:00:00 17,9 8,2 16,8 23,6 18,6 12,9 18 10 22 12 N 80 1 0,0
13.07.2018 20:00:00 19,4 8,0 18,8 24,8 18,3 12,9 13 7 24 13 NW 80 52 0,0
13.07.2018 19:00:00 20,4 8,3 21,9 25,6 18,0 12,9 11 6 22 12 NNW 80 31 0,0
13.07.2018 18:00:00 19,5 8,7 20,6 26,8 17,6 12,9 13 7 26 14 NNW 80 6 0,0
13.07.2018 17:00:00 22,1 9,0 25,6 27,4 17,3 12,9 14 8 24 13 WNW 80 43 0,0
13.07.2018 16:00:00 21,3 7,7 24,3 26,6 17,0 12,9 13 7 21 12 NW 80 56 0,0
13.07.2018 15:00:00 20,7 9,1 26,2 25,0 16,8 12,9 14 8 21 12 NW 75 43 0,0
13.07.2018 14:00:00 19,8 8,4 24,5 24,1 16,6 12,9 10 5 23 12 NNW 75 45 0,0
13.07.2018 13:00:00 18,9 8,7 21,1 22,1 16,5 12,9 15 8 23 13 NNW 75 56 0,0
13.07.2018 12:00:00 18,4 8,6 22,3 19,9 16,4 12,9 13 7 24 13 NW 70 55 0,0
13.07.2018 11:00:00 17,7 9,8 20,7 18,2 16,4 12,9 10 6 17 9 NNW 45 29 0,0
13.07.2018 10:00:00 17,1 11,9 19,0 16,9 16,5 12,9 10 6 18 10 NNW 45 57 0,0
13.07.2018 09:00:00 16,1 10,0 18,6 15,3 16,6 12,9 13 7 16 9 N 40 60 0,0
13.07.2018 08:00:00 15,2 9,4 15,9 14,2 16,8 12,9 13 7 16 9 N 30 50 0,0
13.07.2018 07:00:00 13,5 11,5 13,0 13,8 16,9 12,9 14 8 19 10 N 27 4 0,0
13.07.2018 06:00:00 13,0 11,4 11,7 14,0 17,0 12,9 15 8 19 11 N 22 0 0,0
13.07.2018 05:00:00 12,7 11,5 11,3 14,3 17,2 12,9 15 8 21 12 N 18 0 0,0
13.07.2018 04:00:00 13,0 11,7 11,8 14,6 17,3 12,9 19 10 24 13 N 20 0 0,0
13.07.2018 03:00:00 13,1 12,0 11,9 14,9 17,4 12,9 17 9 21 11 N 20 0 0,0
13.07.2018 02:00:00 13,5 11,8 12,4 15,3 17,5 12,9 15 8 23 12 NNW 23 0 0,0
13.07.2018 01:00:00 13,7 12,0 12,2 15,8 17,6 12,9 21 11 26 14 N 22 0 0,0
13.07.2018 00:00:00 13,6 11,8 12,4 16,4 17,6 12,9 20 11 25 14 NNW 25 0 0,0
12.07.2018 23:00:00 14,0 11,4 12,9 17,2 17,6 12,9 20 11 26 14 NNW 35 0 0,0
12.07.2018 22:00:00 14,2 10,9 13,0 18,2 17,5 12,9 15 8 22 12 NW 45 0 0,0
12.07.2018 21:00:00 15,0 10,9 14,0 19,2 17,4 12,9 16 8 24 13 NNW 50 0 0,0
12.07.2018 20:00:00 15,5 11,5 15,4 20,2 17,2 12,9 19 10 33 18 N 55 0 0,0
12.07.2018 19:00:00 16,6 10,9 16,6 21,5 17,0 12,9 19 10 26 14 NNW 70 0 0,1
12.07.2018 18:00:00 17,9 10,3 18,6 22,4 16,8 12,9 14 8 26 14 NW 70 43 0,0
12.07.2018 17:00:00 18,5 10,5 20,0 22,2 16,6 12,9 17 9 27 14 WNW 70 46 0,0
12.07.2018 16:00:00 17,5 10,7 20,0 21,7 16,4 12,9 15 8 23 12 NW 60 43 0,0
12.07.2018 15:00:00 16,1 11,0 17,9 21,2 16,3 12,9 21 11 31 17 NNW 60 27 0,0
12.07.2018 14:00:00 15,5 10,4 18,2 20,2 16,2 12,9 17 9 26 14 NNW 45 33 0,0
12.07.2018 13:00:00 15,1 10,5 16,9 18,9 16,1 12,9 17 9 28 15 NW 35 29 0,0
12.07.2018 12:00:00 14,0 8,9 17,8 17,0 16,2 12,9 17 9 28 15 NW 25 37 0,0
12.07.2018 11:00:00 12,6 9,5 15,2 15,5 16,2 12,9 20 11 26 14 NW 15 27 0,0
12.07.2018 10:00:00 11,7 9,8 13,3 14,1 16,3 12,9 20 11 30 16 NNW 7 7 0,0
12.07.2018 09:00:00 9,5 9,1 10,6 13,6 16,4 12,9 18 10 33 18 N 0,1 0 0,0
12.07.2018 08:00:00 9,4 9,0 9,8 13,4 16,5 12,9 21 11 27 15 NNW 2,5 0 0,0
12.07.2018 07:00:00 9,5 9,2 9,7 13,4 16,6 12,9 19 11 24 13 NNW 0,6 0 0,0
12.07.2018 06:00:00 9,5 9,4 9,6 13,5 16,7 12,9 14 7 19 10 NW 0,4 0 0,0
12.07.2018 05:00:00 9,7 9,6 9,9 13,7 16,9 12,9 14 8 21 11 NW 0,1 0 0,0
12.07.2018 04:00:00 10,0 9,9 10,3 13,9 17,0 12,9 10 5 24 13 NW 0,1 0 0,0
12.07.2018 03:00:00 10,1 10,0 10,3 14,1 17,1 12,9 16 8 23 12 NW 0,1 0 0,0
12.07.2018 02:00:00 10,1 10,0 10,4 14,2 17,2 12,9 9 5 16 8 W 0,1 0 0,0
12.07.2018 01:00:00 10,1 10,0 10,4 14,5 17,3 12,9 9 5 19 11 W 0,1 0 0,0
12.07.2018 00:00:00 10,0 9,8 10,2 14,8 17,4 12,9 11 6 19 10 W 0,1 0 0,0
11.07.2018 23:00:00 9,9 9,5 10,1 15,1 17,4 12,8 15 8 24 13 WSW 0,1 0 0,0
11.07.2018 22:00:00 9,9 9,3 9,9 15,6 17,5 12,8 17 9 22 12 WSW 4,0 0 0,0
11.07.2018 21:00:00 9,8 9,2 9,9 16,4 17,4 12,8 14 8 25 14 W 3,0 0 0,2
11.07.2018 20:00:00 10,5 9,0 10,7 17,3 17,4 12,8 14 7 26 14 W 30 0 0,0
11.07.2018 19:00:00 11,7 7,7 12,6 18,0 17,3 12,8 17 9 31 17 W 45 3 0,0
11.07.2018 18:00:00 12,2 8,7 12,8 18,6 17,3 12,8 13 7 28 15 W 45 6 0,0
11.07.2018 17:00:00 12,8 9,5 14,7 18,3 17,2 12,8 13 7 24 13 W 40 8 0,0
11.07.2018 16:00:00 12,0 8,8 13,1 18,5 17,2 12,8 17 9 25 14 WNW 30 6 0,0
11.07.2018 15:00:00 12,7 8,2 14,3 18,2 17,2 12,8 17 9 28 15 NW 40 9 0,0
11.07.2018 14:00:00 12,1 8,7 14,3 17,7 17,2 12,8 15 8 21 11 NNW 45 1 0,0
11.07.2018 13:00:00 12,6 8,7 15,1 16,9 17,3 12,8 12 7 22 12 NNW 45 23 0,0
11.07.2018 12:00:00 11,5 8,0 14,1 15,5 17,4 12,8 11 6 23 13 NNE 35 27 0,0
11.07.2018 11:00:00 9,7 8,9 11,4 14,2 17,6 12,8 14 7 24 13 N 9 0 0,0
11.07.2018 10:00:00 9,2 8,6 9,9 13,6 17,8 12,8 15 8 26 14 N 0,6 0 0,0
11.07.2018 09:00:00 9,0 8,4 9,7 13,2 18,0 12,8 10 6 20 11 NNE 0,2 0 0,0
11.07.2018 08:00:00 8,3 8,0 8,7 13,0 18,2 12,8 13 7 24 13 ENE 8 0 0,0
11.07.2018 07:00:00 8,0 7,7 8,3 13,0 18,4 12,8 10 6 18 10 NE 0,1 0 0,3
11.07.2018 06:00:00 7,4 7,0 7,5 13,3 18,7 12,8 11 6 17 9 NE 7 0 0,3

tt = Température de l'air
td = dewpoint
tt 5cm = Température de l'air 5cm
tt -5cm = Température de l'air -5cm
tt -20cm = Température de l'air -20cm
tt -100cm = Température de l'air -100cm
ff = Vitesse du vent
fx = gusts
dd = Direction du vent
vv = visibility
sd = Ensoleillement
rr = Quantités de précipitations

stations d'obs. à proximité